Time;durP1;ratioP1;P1;durP2;ratioP2;P2;SDS_P1;SDS_P2;PMS_P1;PMS_P2;Temp;Humidity;BMP_temperature;BMP_pressure;BME280_temperature;BME280_humidity;BME280_pressure;Samples;Min_cycle;Max_cycle;Signal;HPM_P1;HPM_P2
2022/01/02 10:15:51;;;;;;;1.52;1.42;;;17.00;78.10;;;16.98;80.80;99388.09;5088677;27;20563;-49
2022/01/02 10:18:17;;;;;;;1.58;1.48;;;17.00;79.20;;;16.97;82.06;99391.69;5042157;28;20726;-49
2022/01/02 10:20:47;;;;;;;1.80;1.70;;;17.00;79.60;;;17.05;82.50;99379.53;5032334;28;20727;-50
2022/01/02 10:23:21;;;;;;;1.52;1.40;;;17.10;80.30;;;17.08;81.48;99368.81;5032825;28;20274;-51
2022/01/02 10:25:56;;;;;;;2.00;1.85;;;17.20;79.80;;;17.13;81.15;99373.56;5032489;28;20278;-53
2022/01/02 10:28:35;;;;;;;1.52;1.42;;;17.20;80.60;;;17.15;81.55;99369.00;5016234;28;20699;-51
2022/01/02 10:31:09;;;;;;;1.70;1.60;;;17.30;80.80;;;17.09;82.18;99352.19;5032583;28;20183;-53
2022/01/02 10:33:59;;;;;;;2.35;1.92;;;17.30;80.10;;;17.20;81.89;99358.97;5016446;28;20195;-58
2022/01/02 10:36:42;;;;;;;1.50;1.40;;;17.30;80.00;;;17.05;82.33;99318.75;5049964;28;20192;-57
2022/01/02 10:39:19;;;;;;;1.35;1.25;;;17.40;80.20;;;17.17;82.12;99338.41;5033531;28;20573;-54
2022/01/02 10:41:47;;;;;;;2.05;1.50;;;17.40;80.10;;;17.19;81.90;99343.47;5032855;28;20187;-48
2022/01/02 10:44:31;;;;;;;2.25;1.63;;;17.40;80.20;;;17.22;82.13;99343.13;5000161;28;20192;-54
2022/01/02 10:47:16;;;;;;;1.50;1.40;;;17.40;80.20;;;17.24;82.53;99315.13;5049923;28;20246;-57
2022/01/02 10:49:53;;;;;;;1.70;1.48;;;17.40;80.10;;;17.26;82.46;99318.41;5016444;28;20188;-56
2022/01/02 10:52:20;;;;;;;1.60;1.50;;;17.40;80.00;;;17.27;82.18;99292.19;5049457;28;20184;-51
2022/01/02 10:54:47;;;;;;;1.55;1.45;;;17.50;80.00;;;17.28;81.97;99295.59;5032049;28;20831;-49
2022/01/02 10:57:13;;;;;;;1.77;1.60;;;17.50;80.00;;;17.30;82.06;99317.91;5031887;28;20195;-53
2022/01/02 10:59:39;;;;;;;1.40;1.30;;;17.50;80.00;;;17.23;82.35;99316.91;5048582;28;20192;-54
2022/01/02 11:02:05;;;;;;;1.42;1.33;;;17.50;79.90;;;17.31;81.86;99331.78;5047962;28;20184;-47
2022/01/02 11:04:32;;;;;;;2.50;1.67;;;17.50;79.80;;;17.30;81.94;99324.94;5047839;28;20209;-48
2022/01/02 11:07:01;;;;;;;1.83;1.70;;;17.60;79.90;;;17.35;81.68;99339.16;5049613;28;20191;-59
2022/01/02 11:09:27;;;;;;;1.65;1.50;;;17.60;79.80;;;17.17;82.40;99321.94;4999045;28;20182;-60
2022/01/02 11:11:53;;;;;;;1.55;1.42;;;17.60;79.80;;;17.24;83.12;99333.38;4999250;28;20564;-60
2022/01/02 11:14:19;;;;;;;1.83;1.58;;;17.50;79.90;;;17.39;81.80;99334.44;5038867;28;20317;-59
2022/01/02 11:16:46;;;;;;;1.40;1.30;;;17.60;79.70;;;17.28;83.13;99322.50;5051434;28;20195;-59
2022/01/02 11:19:12;;;;;;;1.65;1.55;;;17.60;79.70;;;17.31;82.71;99329.19;5051415;28;20194;-58
2022/01/02 11:21:39;;;;;;;1.60;1.50;;;17.60;79.80;;;17.29;83.58;99318.94;5068170;28;20187;-59
2022/01/02 11:24:12;;;;;;;1.67;1.58;;;17.60;80.10;;;17.29;83.45;99311.09;4993952;28;20188;-58
2022/01/02 11:26:46;;;;;;;1.30;1.20;;;17.50;80.00;;;17.30;83.33;99310.09;4985285;28;20646;-58
2022/01/02 11:29:12;;;;;;;1.70;1.50;;;17.50;80.20;;;17.33;83.19;99301.16;4981744;28;20196;-58
2022/01/02 11:31:40;;;;;;;1.60;1.50;;;17.50;80.00;;;17.34;83.20;99302.78;4997737;28;20220;-58
2022/01/02 11:34:31;;;;;;;1.60;1.50;;;17.60;80.10;;;17.27;82.91;99299.19;4997127;28;20696;-58
2022/01/02 11:37:24;;;;;;;3.05;2.10;;;17.60;80.10;;;17.32;82.83;99294.31;5013803;28;20217;-56
2022/01/02 11:40:01;;;;;;;1.77;1.67;;;17.60;80.00;;;17.24;82.75;99273.41;5007722;28;20712;-56
2022/01/02 11:42:41;;;;;;;2.15;1.52;;;17.60;80.10;;;17.37;82.53;99281.63;5013509;28;20227;-55
2022/01/02 11:45:31;;;;;;;2.50;2.30;;;17.60;79.90;;;17.36;84.78;99269.56;5013044;28;20303;-56
2022/01/02 11:47:57;;;;;;;2.13;1.80;;;17.70;80.60;;;17.32;83.80;99270.84;4970169;28;20223;-49
2022/01/02 11:50:35;;;;;;;2.28;2.08;;;17.70;80.60;;;17.43;83.40;99288.81;4996776;28;20236;-54
2022/01/02 11:53:10;;;;;;;5.70;2.28;;;17.70;80.30;;;17.41;83.73;99291.59;5013604;28;20215;-49
2022/01/02 11:55:36;;;;;;;1.98;1.88;;;17.70;80.30;;;17.26;86.05;99293.16;5043240;28;20683;-54
2022/01/02 11:58:02;;;;;;;2.42;2.10;;;17.60;80.70;;;17.32;86.20;99312.56;5053977;28;20214;-54
2022/01/02 12:00:48;;;;;;;3.10;2.20;;;17.60;80.90;;;17.31;86.10;99300.50;5053555;28;20183;-54
2022/01/02 12:03:42;;;;;;;2.83;1.95;;;17.60;81.30;;;17.30;85.51;99289.25;5053773;28;20183;-54
2022/01/02 12:06:21;;;;;;;2.80;2.13;;;17.60;81.00;;;17.27;85.22;99271.31;5053898;28;20275;-53
2022/01/02 12:08:49;;;;;;;3.17;2.20;;;17.50;80.80;;;17.28;85.69;99254.69;5054778;28;20194;-51
2022/01/02 12:11:38;;;;;;;2.50;2.15;;;17.60;81.00;;;17.32;85.38;99249.97;5053225;28;20188;-55
2022/01/02 12:14:11;;;;;;;2.92;2.63;;;17.60;80.90;;;17.32;84.15;99242.16;5053334;28;20233;-55
2022/01/02 12:16:42;;;;;;;2.22;1.88;;;17.60;80.80;;;17.36;84.00;99235.66;5033513;28;20533;-55
2022/01/02 12:19:08;;;;;;;3.10;2.42;;;17.70;80.60;;;17.38;84.21;99234.50;5033668;28;20657;-61
2022/01/02 12:21:35;;;;;;;2.15;2.00;;;17.70;80.60;;;17.37;84.03;99217.25;5000854;28;20211;-55
2022/01/02 12:24:04;;;;;;;2.40;2.20;;;17.70;80.50;;;17.43;83.76;99223.63;5033360;28;20192;-58
2022/01/02 12:26:35;;;;;;;2.45;2.08;;;17.70;80.40;;;17.47;83.51;99222.31;5017583;28;20184;-57
2022/01/02 12:29:05;;;;;;;2.70;2.50;;;17.70;80.30;;;17.52;83.60;99225.28;5034685;28;20273;-53
2022/01/02 12:31:40;;;;;;;2.53;2.15;;;17.80;80.50;;;17.54;83.46;99218.13;5034510;28;20629;-56
2022/01/02 12:34:13;;;;;;;2.25;2.05;;;17.80;80.40;;;17.57;83.10;99214.34;5017125;28;20204;-52
2022/01/02 12:36:42;;;;;;;1.98;1.83;;;17.80;80.40;;;17.56;82.96;99217.94;5033138;28;20588;-54
2022/01/02 12:39:10;;;;;;;2.33;2.13;;;17.80;80.10;;;17.56;82.64;99213.53;5033832;28;20279;-53
2022/01/02 12:41:38;;;;;;;2.38;2.17;;;17.80;80.10;;;17.61;82.64;99221.72;5017149;28;20176;-55
2022/01/02 12:44:15;;;;;;;1.65;1.55;;;17.90;80.30;;;17.62;82.47;99214.75;5033522;28;20216;-55
2022/01/02 12:46:49;;;;;;;2.30;2.10;;;17.90;80.10;;;17.65;82.67;99194.34;5048766;28;20199;-51
2022/01/02 12:49:17;;;;;;;2.10;1.90;;;17.90;80.10;;;17.67;82.57;99197.63;5032649;28;20188;-55
2022/01/02 12:51:45;;;;;;;2.03;1.88;;;17.90;80.80;;;17.68;82.47;99194.03;5033030;28;20196;-49
2022/01/02 12:54:13;;;;;;;2.00;1.90;;;17.90;80.10;;;17.66;82.50;99189.94;5032560;28;20205;-54
2022/01/02 12:56:50;;;;;;;2.17;2.00;;;17.90;79.90;;;17.60;82.64;99173.13;5032761;28;20188;-57
2022/01/02 12:59:23;;;;;;;2.33;2.13;;;17.90;80.00;;;17.69;82.86;99182.63;5032110;28;20287;-54
2022/01/02 13:01:55;;;;;;;2.00;1.90;;;17.90;80.00;;;17.70;82.46;99176.44;5034049;28;20271;-55
2022/01/02 13:04:24;;;;;;;2.08;1.88;;;17.90;80.00;;;17.71;81.97;99174.59;5033765;28;20184;-58
2022/01/02 13:06:54;;;;;;;2.30;2.10;;;18.00;79.90;;;17.72;81.81;99158.81;5032911;28;20184;-55
2022/01/02 13:09:36;;;;;;;2.40;2.05;;;18.00;79.80;;;17.70;81.78;99145.13;5032468;28;20227;-64
2022/01/02 13:12:04;;;;;;;2.15;1.95;;;18.00;79.70;;;17.74;81.98;99151.63;5017848;28;20584;-61
2022/01/02 13:14:38;;;;;;;2.40;2.20;;;18.00;79.70;;;17.74;81.62;99133.38;5024477;28;20310;-56
2022/01/02 13:17:08;;;;;;;2.17;1.98;;;18.00;79.60;;;17.71;81.32;99114.59;4996247;28;20708;-55
2022/01/02 13:19:38;;;;;;;2.35;2.00;;;18.00;79.40;;;17.73;81.27;99136.94;4980335;28;20212;-58
2022/01/02 13:22:04;;;;;;;2.30;1.98;;;18.00;79.50;;;17.67;81.20;99115.91;4980550;28;20192;-54
2022/01/02 13:24:33;;;;;;;2.05;1.88;;;18.00;79.50;;;17.66;81.62;99103.84;4979704;28;20189;-53
2022/01/02 13:26:58;;;;;;;1.88;1.77;;;18.00;79.50;;;17.73;81.44;99113.47;4996783;28;20192;-54
2022/01/02 13:29:26;;;;;;;2.60;2.30;;;18.00;79.50;;;17.73;80.90;99105.63;4995952;28;20189;-53
2022/01/02 13:31:53;;;;;;;2.17;1.98;;;18.00;79.40;;;17.66;81.38;99075.13;4980345;28;20197;-54
2022/01/02 13:34:27;;;;;;;2.75;2.25;;;18.00;79.30;;;17.76;81.19;99088.84;4995822;28;20247;-49
2022/01/02 13:37:00;;;;;;;2.15;2.00;;;18.00;79.30;;;17.75;81.11;99101.06;4979875;28;20217;-56
2022/01/02 13:39:46;;;;;;;2.75;2.20;;;18.00;79.20;;;17.75;81.30;99095.03;5013516;28;20220;-50
2022/01/02 13:42:15;;;;;;;2.35;1.90;;;18.00;79.40;;;17.68;81.52;99079.22;4996600;28;20185;-49
2022/01/02 13:44:49;;;;;;;2.20;2.00;;;18.00;79.50;;;17.73;81.79;99092.59;4979823;28;20189;-49
2022/01/02 13:47:16;;;;;;;5.43;2.33;;;18.00;79.60;;;17.74;81.70;99101.22;4995859;28;20226;-48
2022/01/02 13:49:49;;;;;;;2.08;1.88;;;18.00;79.50;;;17.74;81.91;99106.44;4995720;28;20192;-53
2022/01/02 13:52:19;;;;;;;2.17;1.98;;;18.00;79.60;;;17.74;82.21;99109.06;5012191;28;20193;-53
2022/01/02 13:54:46;;;;;;;3.03;2.00;;;18.00;79.60;;;17.75;82.06;99102.88;4996409;28;20236;-54
2022/01/02 13:57:13;;;;;;;2.20;1.95;;;18.10;79.70;;;17.75;81.60;99108.91;4979633;28;20196;-51
2022/01/02 13:59:39;;;;;;;2.33;2.08;;;18.00;79.50;;;17.75;82.19;99105.47;4995634;28;20196;-52
2022/01/02 14:02:05;;;;;;;2.28;2.08;;;18.00;79.60;;;17.71;82.25;99107.59;4995668;28;20232;-52
2022/01/02 14:04:57;;;;;;;2.20;1.95;;;18.00;79.80;;;17.63;82.39;99106.75;4979708;28;20281;-52
2022/01/02 14:07:30;;;;;;;4.15;1.98;;;18.00;79.70;;;17.65;82.68;99123.09;4979393;28;20200;-52
2022/01/02 14:09:56;;;;;;;2.00;1.90;;;18.00;79.90;;;17.62;83.03;99129.47;4979639;28;20224;-52
2022/01/02 14:12:27;;;;;;;2.10;1.70;;;17.90;79.90;;;17.63;83.30;99136.28;4995687;28;20220;-51
2022/01/02 14:15:02;;;;;;;2.13;1.92;;;17.90;80.00;;;17.62;83.12;99139.06;5016225;28;20322;-52
2022/01/02 14:17:31;;;;;;;2.10;1.90;;;17.90;80.10;;;17.62;83.47;99149.50;5005674;28;20198;-52
2022/01/02 14:19:58;;;;;;;1.80;1.70;;;17.90;80.20;;;17.61;83.85;99145.25;5051686;28;20187;-52
2022/01/02 14:22:26;;;;;;;2.28;2.08;;;17.90;80.40;;;17.60;84.01;99149.63;5051414;28;20196;-52
2022/01/02 14:24:52;;;;;;;2.30;2.10;;;17.90;80.50;;;17.61;84.35;99164.31;5052561;28;20191;-53
2022/01/02 14:27:22;;;;;;;2.25;1.98;;;17.90;80.60;;;17.50;84.95;99162.00;5035232;28;20543;-51
2022/01/02 14:29:48;;;;;;;2.03;1.90;;;17.90;80.80;;;17.58;84.47;99184.69;5019392;28;20212;-52
2022/01/02 14:32:14;;;;;;;2.00;1.80;;;17.90;80.70;;;17.57;84.83;99173.44;5051198;28;20601;-51
2022/01/02 14:34:42;;;;;;;2.00;1.80;;;17.90;80.70;;;17.57;84.36;99188.25;5051481;28;20210;-52
2022/01/02 14:37:09;;;;;;;2.25;1.95;;;17.90;80.70;;;17.56;83.49;99189.25;5034755;28;20227;-52
2022/01/02 14:39:35;;;;;;;2.15;1.95;;;17.90;80.40;;;17.54;83.87;99186.81;5052797;28;20286;-53
2022/01/02 14:42:01;;;;;;;2.63;1.95;;;17.80;80.10;;;17.54;84.49;99188.59;5051450;28;20188;-52
2022/01/02 14:44:26;;;;;;;2.35;1.80;;;17.80;80.50;;;17.55;83.82;99193.63;5034712;28;20192;-52
2022/01/02 14:46:52;;;;;;;2.50;2.00;;;17.80;80.20;;;17.43;84.08;99182.69;5050851;28;20286;-53
2022/01/02 14:49:18;;;;;;;1.77;1.67;;;17.80;80.30;;;17.51;84.36;99200.16;5051227;28;20195;-52
2022/01/02 14:51:44;;;;;;;2.53;2.08;;;17.80;80.50;;;17.48;83.85;99203.91;5052370;28;20318;-52
2022/01/02 14:54:10;;;;;;;1.80;1.60;;;17.80;80.50;;;17.49;83.92;99202.94;5034997;28;20302;-52
2022/01/02 14:56:38;;;;;;;1.88;1.70;;;17.80;80.30;;;17.41;83.93;99202.09;5034595;28;20245;-52
2022/01/02 14:59:05;;;;;;;1.73;1.63;;;17.80;80.30;;;17.47;84.22;99206.66;5034903;28;20183;-52
2022/01/02 15:01:31;;;;;;;2.25;2.05;;;17.80;80.30;;;17.49;84.82;99215.16;5052927;28;20321;-52
2022/01/02 15:03:57;;;;;;;2.17;1.83;;;17.80;80.50;;;17.50;84.68;99201.13;5038520;28;20194;-52
2022/01/02 15:06:23;;;;;;;2.17;1.67;;;17.80;80.60;;;17.48;85.16;99198.69;5054578;28;20191;-52
2022/01/02 15:08:49;;;;;;;2.00;1.90;;;17.80;80.70;;;17.42;85.05;99191.50;5056487;28;20188;-52
2022/01/02 15:11:16;;;;;;;2.05;1.95;;;17.80;80.80;;;17.45;85.34;99199.03;5038330;28;20628;-53
2022/01/02 15:13:42;;;;;;;1.95;1.77;;;17.80;80.90;;;17.44;85.85;99205.22;5035772;28;20191;-52
2022/01/02 15:16:08;;;;;;;2.03;1.88;;;17.80;81.00;;;17.44;85.31;99207.00;5018021;28;20202;-53
2022/01/02 15:18:34;;;;;;;2.00;1.80;;;17.80;81.00;;;17.46;85.71;99212.84;5035681;28;20279;-51
2022/01/02 15:21:00;;;;;;;1.83;1.70;;;17.80;81.00;;;17.47;86.44;99207.47;5018045;28;20263;-52
2022/01/02 15:23:26;;;;;;;1.88;1.77;;;17.80;81.40;;;17.45;86.22;99225.09;5035550;28;20190;-54
2022/01/02 15:25:52;;;;;;;2.85;1.80;;;17.80;81.30;;;17.46;86.63;99215.44;5001766;28;20263;-57
2022/01/02 15:28:18;;;;;;;1.95;1.80;;;17.80;81.40;;;17.45;86.98;99221.69;5001957;28;20634;-57
2022/01/02 15:30:44;;;;;;;3.05;1.98;;;17.70;81.50;;;17.42;86.77;99224.59;5018047;28;20192;-56
2022/01/02 15:33:10;;;;;;;2.22;1.77;;;17.70;81.40;;;17.32;86.74;99210.84;5018243;28;20291;-57
2022/01/02 15:35:36;;;;;;;1.90;1.77;;;17.80;81.70;;;17.41;87.15;99228.16;5001117;28;20306;-56
2022/01/02 15:38:02;;;;;;;2.05;1.85;;;17.70;81.50;;;17.41;87.82;99228.16;5017925;28;20189;-56
2022/01/02 15:40:28;;;;;;;1.60;1.50;;;17.70;81.70;;;17.37;86.89;99229.47;5001340;28;20196;-57
2022/01/02 15:42:54;;;;;;;1.63;1.52;;;17.70;81.40;;;17.36;87.09;99220.00;5017906;28;20233;-57
2022/01/02 15:45:20;;;;;;;1.63;1.52;;;17.70;81.50;;;17.39;87.76;99219.69;5001174;28;20193;-56
2022/01/02 15:47:48;;;;;;;2.10;1.80;;;17.70;81.60;;;17.33;87.13;99220.31;5017401;28;20278;-57
2022/01/02 15:50:15;;;;;;;1.85;1.55;;;17.70;81.70;;;17.36;87.02;99215.63;5001830;28;20603;-57
2022/01/02 15:52:41;;;;;;;2.33;1.48;;;17.70;82.40;;;17.37;86.77;99229.47;5001461;28;20187;-57
2022/01/02 15:55:07;;;;;;;1.65;1.55;;;17.70;81.50;;;17.21;86.80;99208.56;5017571;28;20208;-57
2022/01/02 15:57:33;;;;;;;2.20;2.00;;;17.70;81.60;;;17.26;86.97;99198.44;5017843;28;20196;-60
2022/01/02 15:59:59;;;;;;;1.88;1.77;;;17.70;81.60;;;17.30;87.14;99205.78;5035117;28;20189;-58
2022/01/02 16:02:25;;;;;;;2.03;1.75;;;17.70;81.70;;;17.35;87.26;99236.63;5017244;28;20196;-55
2022/01/02 16:04:51;;;;;;;1.88;1.77;;;17.70;81.50;;;17.32;87.51;99240.34;5017334;28;20184;-58
2022/01/02 16:07:17;;;;;;;2.28;1.90;;;17.70;81.70;;;17.36;86.81;99239.09;5017868;28;20188;-58
2022/01/02 16:09:43;;;;;;;2.75;2.00;;;17.70;81.70;;;17.37;86.85;99243.34;5034980;28;20186;-58
2022/01/02 16:12:09;;;;;;;2.05;1.50;;;17.70;81.70;;;17.37;86.99;99240.72;5035168;28;20184;-58
2022/01/02 16:14:35;;;;;;;2.67;1.80;;;17.70;81.60;;;17.36;86.85;99249.50;5034547;28;20342;-58
2022/01/02 16:17:01;;;;;;;1.70;1.60;;;17.70;81.70;;;17.34;87.04;99237.59;5016996;28;20196;-57
2022/01/02 16:19:26;;;;;;;1.52;1.42;;;17.70;81.70;;;17.37;86.92;99245.13;5016757;28;20200;-57
2022/01/02 16:21:53;;;;;;;2.50;1.60;;;17.70;81.70;;;17.33;87.08;99247.22;5035064;28;20188;-58
2022/01/02 16:24:20;;;;;;;1.77;1.50;;;17.70;81.60;;;17.36;87.29;99259.13;5001013;28;20191;-48
2022/01/02 16:26:47;;;;;;;3.08;1.90;;;17.70;81.70;;;17.30;87.35;99254.53;5035019;28;20181;-58
2022/01/02 16:29:13;;;;;;;1.95;1.55;;;17.60;81.70;;;17.36;87.09;99267.78;5017421;28;20211;-59
2022/01/02 16:31:39;;;;;;;7.05;1.92;;;17.70;81.80;;;17.36;87.16;99264.34;5000588;28;20672;-57
2022/01/02 16:34:05;;;;;;;2.08;1.90;;;17.70;81.80;;;17.28;87.54;99256.50;5017170;28;20333;-58
2022/01/02 16:36:31;;;;;;;3.75;1.70;;;17.60;81.70;;;17.36;87.61;99272.16;5000371;28;20315;-58
2022/01/02 16:38:56;;;;;;;1.80;1.70;;;17.60;81.80;;;17.27;87.39;99253.06;5017265;28;20188;-58
2022/01/02 16:41:24;;;;;;;3.88;2.05;;;17.60;81.80;;;17.29;87.44;99245.09;5016703;28;20563;-58
2022/01/02 16:43:50;;;;;;;2.60;1.58;;;17.60;81.80;;;17.35;87.62;99260.91;5000512;28;20231;-58
2022/01/02 16:46:16;;;;;;;2.10;1.63;;;17.60;81.90;;;17.36;87.59;99266.97;4983591;28;20194;-57
2022/01/02 16:48:44;;;;;;;1.98;1.70;;;17.60;81.90;;;17.26;87.87;99254.03;5016553;28;20184;-58
2022/01/02 16:51:10;;;;;;;2.15;1.60;;;17.60;81.80;;;17.35;87.76;99265.31;5034400;28;20645;-58
2022/01/02 16:53:36;;;;;;;1.55;1.40;;;17.60;81.90;;;17.35;87.78;99262.72;5016359;28;20188;-58
2022/01/02 16:56:02;;;;;;;2.10;1.80;;;17.60;81.90;;;17.35;88.02;99266.13;4983893;28;20241;-59
2022/01/02 16:58:28;;;;;;;1.50;1.40;;;17.60;81.90;;;17.36;87.63;99266.97;5033935;28;20276;-59
2022/01/02 17:00:55;;;;;;;2.38;1.73;;;17.70;82.00;;;17.35;87.96;99258.31;5016235;28;20195;-56
2022/01/02 17:03:21;;;;;;;2.20;1.70;;;17.60;82.00;;;17.35;88.02;99254.88;5016495;28;20282;-47
2022/01/02 17:05:48;;;;;;;3.22;2.20;;;17.60;82.00;;;17.35;88.07;99241.84;5000015;28;20192;-58
2022/01/02 17:08:15;;;;;;;1.77;1.50;;;17.60;82.00;;;17.34;88.11;99253.25;5032663;28;20200;-58
2022/01/02 17:10:41;;;;;;;4.15;1.98;;;17.60;82.10;;;17.33;88.29;99262.03;5016141;28;20184;-58
2022/01/02 17:13:07;;;;;;;1.63;1.50;;;17.60;82.10;;;17.35;88.29;99258.31;4999832;28;20188;-59
2022/01/02 17:15:34;;;;;;;3.22;2.00;;;17.60;82.10;;;17.28;87.96;99246.06;5033071;28;20244;-58
2022/01/02 17:18:00;;;;;;;1.88;1.70;;;17.60;82.10;;;17.35;88.44;99266.13;4999689;28;20205;-59
2022/01/02 17:20:30;;;;;;;2.72;1.80;;;17.60;82.20;;;17.34;88.67;99277.53;4999582;28;20192;-57
2022/01/02 17:22:56;;;;;;;2.08;1.67;;;17.60;82.30;;;17.36;88.58;99277.38;4999839;28;20197;-58
2022/01/02 17:25:22;;;;;;;2.40;1.88;;;17.60;82.30;;;17.39;89.55;99277.06;5033263;28;20215;-54
2022/01/02 17:27:48;;;;;;;3.03;1.70;;;17.70;82.70;;;17.37;88.56;99277.25;5016002;28;20590;-54
2022/01/02 17:30:16;;;;;;;1.52;1.42;;;17.70;82.60;;;17.38;88.97;99281.44;5015873;28;20184;-57
2022/01/02 17:32:42;;;;;;;2.00;1.80;;;17.70;82.60;;;17.38;88.55;99272.81;5015918;28;20192;-60
2022/01/02 17:35:11;;;;;;;2.28;1.50;;;17.70;82.50;;;17.47;90.14;99279.69;5016090;28;20212;-59
2022/01/02 17:37:40;;;;;;;1.60;1.50;;;17.70;83.90;;;17.49;88.85;99285.56;5015749;28;20185;-55
2022/01/02 17:40:07;;;;;;;2.10;1.40;;;17.70;83.20;;;17.52;89.26;99287.06;5015814;28;20192;-59
2022/01/02 17:42:33;;;;;;;1.38;1.27;;;17.80;83.30;;;17.52;90.55;99282.66;5033337;28;20192;-59
2022/01/02 17:44:59;;;;;;;1.75;1.50;;;17.80;83.70;;;17.55;89.43;99286.72;5015667;28;20546;-59
2022/01/02 17:47:25;;;;;;;1.92;1.65;;;17.80;84.40;;;17.57;90.77;99287.41;4998814;28;20287;-55
2022/01/02 17:49:51;;;;;;;1.73;1.60;;;17.80;83.90;;;17.60;90.03;99303.56;5015489;28;20188;-56
2022/01/02 17:52:17;;;;;;;1.55;1.45;;;17.80;83.80;;;17.62;90.20;99312.09;5015604;28;20246;-61
2022/01/02 17:54:42;;;;;;;1.50;1.40;;;17.80;83.60;;;17.63;91.23;99290.22;5015227;28;20248;-58
2022/01/02 17:57:08;;;;;;;1.60;1.50;;;17.90;83.90;;;17.63;91.53;99298.03;5015676;28;20188;-54
2022/01/02 17:59:34;;;;;;;1.75;1.48;;;17.90;84.10;;;17.63;90.95;99303.28;5033072;28;20556;-52
2022/01/02 18:02:01;;;;;;;1.67;1.58;;;17.90;84.00;;;17.66;91.64;99316.00;4999196;28;20195;-56
2022/01/02 18:04:27;;;;;;;1.98;1.48;;;17.90;84.00;;;17.68;91.58;99308.03;5015046;28;20199;-55
2022/01/02 18:06:53;;;;;;;1.42;1.33;;;17.90;84.00;;;17.68;91.70;99290.59;5015784;28;20712;-57
2022/01/02 18:09:26;;;;;;;2.63;1.30;;;17.90;84.00;;;17.62;91.45;99279.97;5015391;28;20275;-56
2022/01/02 18:11:52;;;;;;;3.38;1.50;;;17.90;84.00;;;17.65;91.08;99282.25;5016202;28;20189;-49
2022/01/02 18:14:18;;;;;;;2.00;1.70;;;18.00;84.10;;;17.73;90.91;99295.31;5026191;28;20231;-57
2022/01/02 18:16:44;;;;;;;2.33;1.92;;;18.00;84.10;;;17.73;91.07;99290.09;5034616;28;20199;-61
2022/01/02 18:19:10;;;;;;;2.58;1.70;;;18.00;84.00;;;17.73;91.14;99282.25;5051692;28;20581;-55
2022/01/02 18:21:38;;;;;;;1.70;1.50;;;18.00;84.00;;;17.65;91.12;99266.59;5051465;28;20180;-54
2022/01/02 18:24:06;;;;;;;1.67;1.58;;;18.00;83.90;;;17.75;90.91;99291.59;5051793;28;20227;-54
2022/01/02 18:26:32;;;;;;;1.52;1.42;;;18.00;83.90;;;17.76;90.94;99284.56;5051489;28;20644;-59
2022/01/02 18:28:58;;;;;;;1.67;1.58;;;18.00;83.90;;;17.76;90.63;99267.13;5052860;28;20188;-56
2022/01/02 18:31:25;;;;;;;1.65;1.55;;;18.00;83.80;;;17.64;90.89;99225.81;5035020;28;20246;-54
2022/01/02 18:33:51;;;;;;;1.60;1.50;;;18.00;83.80;;;17.75;90.50;99249.00;5051612;28;20269;-59
2022/01/02 18:36:17;;;;;;;2.22;1.20;;;18.10;83.70;;;17.75;90.41;99262.88;5069748;28;20532;-56
2022/01/02 18:38:43;;;;;;;1.50;1.40;;;18.10;83.60;;;17.75;90.35;99256.84;5038718;28;20183;-58
2022/01/02 18:41:09;;;;;;;2.05;1.60;;;18.10;83.50;;;17.72;90.34;99244.91;5038898;28;20219;-56
2022/01/02 18:43:35;;;;;;;2.28;1.70;;;18.10;83.50;;;17.78;90.30;99262.56;5055277;28;20708;-57
2022/01/02 18:46:02;;;;;;;1.42;1.33;;;18.10;83.40;;;17.79;90.36;99252.91;5055458;28;20657;-59
2022/01/02 18:48:29;;;;;;;1.63;1.50;;;18.10;83.40;;;17.80;89.84;99262.38;5054811;28;20291;-54
2022/01/02 18:50:55;;;;;;;1.67;1.50;;;18.10;83.30;;;17.80;90.11;99259.78;5055554;28;20179;-55
2022/01/02 18:53:21;;;;;;;1.40;1.30;;;18.10;83.30;;;17.79;90.17;99266.78;5055206;28;20190;-63
2022/01/02 18:55:47;;;;;;;1.92;1.60;;;18.10;83.30;;;17.81;89.77;99271.84;5053862;28;20753;-56
2022/01/02 18:58:13;;;;;;;1.65;1.33;;;18.10;83.20;;;17.80;89.45;99286.69;5056622;28;20198;-62
2022/01/02 19:00:40;;;;;;;1.75;1.42;;;18.10;83.10;;;17.84;89.57;99282.81;5038412;28;20194;-57
2022/01/02 19:03:08;;;;;;;1.55;1.30;;;18.20;83.10;;;17.87;89.33;99297.34;5055162;28;20648;-67
2022/01/02 19:05:35;;;;;;;1.55;1.45;;;18.10;82.90;;;17.85;89.63;99283.63;5054786;28;20536;-51
2022/01/02 19:08:01;;;;;;;1.90;1.52;;;18.10;83.00;;;17.85;89.27;99281.00;5038493;28;20663;-58
2022/01/02 19:10:27;;;;;;;1.83;1.73;;;18.10;83.00;;;17.82;89.14;99252.59;5055269;28;20187;-57
2022/01/02 19:12:53;;;;;;;1.35;1.20;;;18.10;82.90;;;17.85;89.03;99252.28;5038171;28;20180;-59
2022/01/02 19:15:19;;;;;;;1.90;1.67;;;18.10;82.80;;;17.86;89.32;99269.59;5054393;28;20236;-61
2022/01/02 19:17:45;;;;;;;1.58;1.45;;;18.10;82.90;;;17.83;89.07;99252.44;5054230;28;20195;-59
2022/01/02 19:20:12;;;;;;;1.70;1.60;;;18.10;82.80;;;17.87;89.39;99263.41;5055905;28;20676;-59
2022/01/02 19:22:38;;;;;;;1.23;1.13;;;18.10;82.90;;;17.85;89.46;99263.56;5037754;28;20187;-54
2022/01/02 19:25:05;;;;;;;2.22;1.70;;;18.10;83.00;;;17.85;89.45;99279.22;5055968;28;20188;-51
2022/01/02 19:27:31;;;;;;;1.25;1.15;;;18.20;83.10;;;17.87;89.29;99284.28;5021603;28;20701;-62
2022/01/02 19:29:57;;;;;;;1.70;1.30;;;18.20;83.00;;;17.80;89.26;99273.63;5021682;28;20188;-55
2022/01/02 19:32:23;;;;;;;1.48;1.38;;;18.20;83.00;;;17.88;89.38;99271.03;5038157;28;20380;-54
2022/01/02 19:34:49;;;;;;;1.50;1.40;;;18.20;83.00;;;17.79;89.39;99266.78;5054288;28;20223;-53
2022/01/02 19:37:17;;;;;;;1.30;1.20;;;18.20;83.00;;;17.83;89.44;99269.91;5054219;28;20243;-52
2022/01/02 19:39:45;;;;;;;1.50;1.40;;;18.20;82.90;;;17.85;89.31;99255.72;5054358;28;20219;-52
2022/01/02 19:42:12;;;;;;;2.03;1.30;;;18.20;82.90;;;17.81;88.16;99243.13;5038140;28;20191;-56
2022/01/02 19:44:40;;;;;;;1.33;1.17;;;18.10;82.50;;;17.70;87.31;99231.22;5021376;28;20184;-55
2022/01/02 19:47:07;;;;;;;1.35;1.25;;;18.10;82.00;;;17.75;87.68;99246.41;5054514;28;20183;-57
2022/01/02 19:49:33;;;;;;;2.25;1.70;;;18.10;82.10;;;17.72;87.55;99251.91;5037506;28;20199;-57
2022/01/02 19:51:59;;;;;;;1.70;1.60;;;18.00;81.80;;;17.61;87.32;99231.34;5055209;28;20180;-57
2022/01/02 19:54:25;;;;;;;1.40;1.30;;;18.00;81.70;;;17.71;88.68;99252.91;5055770;28;20602;-58
2022/01/02 19:56:51;;;;;;;1.65;1.55;;;18.00;82.10;;;17.77;88.90;99253.09;5055103;28;20199;-51
2022/01/02 19:59:18;;;;;;;6.05;1.77;;;18.10;82.50;;;17.79;88.47;99242.47;5054058;28;20195;-55
2022/01/02 20:01:44;;;;;;;1.48;1.38;;;18.10;82.40;;;17.77;88.83;99228.78;5053836;28;20188;-57
2022/01/02 20:04:10;;;;;;;1.40;1.30;;;18.10;82.60;;;17.82;88.82;99227.31;5053903;28;20179;-59
2022/01/02 20:06:36;;;;;;;2.78;1.40;;;18.10;82.60;;;17.83;88.86;99233.38;5054991;28;20196;-65
2022/01/02 20:09:03;;;;;;;3.55;1.85;;;18.10;82.60;;;17.88;88.86;99250.16;5037739;28;20300;-55
2022/01/02 20:11:29;;;;;;;1.73;1.50;;;18.20;82.80;;;17.90;88.80;99259.63;5053991;28;20184;-56
2022/01/02 20:13:55;;;;;;;3.65;1.90;;;18.20;82.80;;;17.88;89.06;99244.13;5051266;28;20183;-60
2022/01/02 20:16:21;;;;;;;2.15;1.95;;;18.20;82.80;;;17.89;89.22;99245.75;5017811;28;20199;-58
2022/01/02 20:18:47;;;;;;;1.67;1.30;;;18.20;82.70;;;17.93;89.00;99238.44;5034070;28;20621;-61
2022/01/02 20:21:13;;;;;;;1.40;1.30;;;18.20;82.80;;;17.92;89.05;99237.63;5000893;28;20196;-60
2022/01/02 20:23:42;;;;;;;1.40;1.30;;;18.20;82.80;;;17.93;88.89;99228.00;5034621;28;20189;-54
2022/01/02 20:26:08;;;;;;;3.30;1.90;;;18.20;82.80;;;17.95;89.11;99245.16;5017592;28;20188;-53
2022/01/02 20:28:34;;;;;;;1.50;1.40;;;18.20;82.80;;;17.93;88.97;99238.44;5034524;28;20188;-52
2022/01/02 20:31:00;;;;;;;3.88;1.50;;;18.20;82.80;;;17.86;88.61;99222.63;5034615;28;20220;-55
2022/01/02 20:33:27;;;;;;;1.27;1.17;;;18.20;82.70;;;17.98;88.53;99236.16;5016870;28;20558;-53
2022/01/02 20:35:53;;;;;;;1.83;1.55;;;18.20;82.60;;;17.82;88.40;99216.88;5034053;28;20224;-53
2022/01/02 20:38:19;;;;;;;1.40;1.30;;;18.30;82.60;;;17.99;88.11;99256.06;5001049;28;20223;-63
2022/01/02 20:40:45;;;;;;;1.52;1.25;;;18.30;82.60;;;17.95;87.97;99254.78;5034422;28;20195;-51